sensor_id;sensor_type;location;lat;lon;timestamp;temperature;humidity
8882;DHT22;4477;48.736;9.176;2024-02-16T00:00:12;8.50;99.90
8882;DHT22;4477;48.736;9.176;2024-02-16T00:02:44;8.60;99.90
8882;DHT22;4477;48.736;9.176;2024-02-16T00:05:16;8.60;99.90
8882;DHT22;4477;48.736;9.176;2024-02-16T00:07:43;8.60;99.90
8882;DHT22;4477;48.736;9.176;2024-02-16T00:10:11;8.50;99.90
8882;DHT22;4477;48.736;9.176;2024-02-16T00:12:39;8.60;99.90
8882;DHT22;4477;48.736;9.176;2024-02-16T00:15:08;8.60;99.90
8882;DHT22;4477;48.736;9.176;2024-02-16T00:17:37;8.70;99.90
8882;DHT22;4477;48.736;9.176;2024-02-16T00:20:07;8.80;99.90
8882;DHT22;4477;48.736;9.176;2024-02-16T00:22:36;8.70;99.90
8882;DHT22;4477;48.736;9.176;2024-02-16T00:25:05;8.70;99.90
8882;DHT22;4477;48.736;9.176;2024-02-16T00:27:36;8.60;99.90
8882;DHT22;4477;48.736;9.176;2024-02-16T00:30:05;8.70;99.90
8882;DHT22;4477;48.736;9.176;2024-02-16T00:32:32;8.70;99.80
8882;DHT22;4477;48.736;9.176;2024-02-16T00:35:01;8.70;99.10
8882;DHT22;4477;48.736;9.176;2024-02-16T00:37:29;8.90;98.30
8882;DHT22;4477;48.736;9.176;2024-02-16T00:39:56;9.00;97.50
8882;DHT22;4477;48.736;9.176;2024-02-16T00:42:24;9.10;96.80
8882;DHT22;4477;48.736;9.176;2024-02-16T00:44:53;9.10;96.50
8882;DHT22;4477;48.736;9.176;2024-02-16T00:47:21;9.20;96.30
8882;DHT22;4477;48.736;9.176;2024-02-16T00:49:49;9.20;95.80
8882;DHT22;4477;48.736;9.176;2024-02-16T00:52:18;9.30;95.00
8882;DHT22;4477;48.736;9.176;2024-02-16T00:54:47;9.30;95.40
8882;DHT22;4477;48.736;9.176;2024-02-16T00:57:14;9.30;94.70
8882;DHT22;4477;48.736;9.176;2024-02-16T00:59:43;9.30;94.20
8882;DHT22;4477;48.736;9.176;2024-02-16T01:02:10;9.50;93.60
8882;DHT22;4477;48.736;9.176;2024-02-16T01:04:37;9.60;93.20
8882;DHT22;4477;48.736;9.176;2024-02-16T01:07:04;9.50;93.20
8882;DHT22;4477;48.736;9.176;2024-02-16T01:09:33;9.50;93.10
8882;DHT22;4477;48.736;9.176;2024-02-16T01:12:02;9.50;92.80
8882;DHT22;4477;48.736;9.176;2024-02-16T01:14:30;9.50;92.80
8882;DHT22;4477;48.736;9.176;2024-02-16T01:16:57;9.40;92.60
8882;DHT22;4477;48.736;9.176;2024-02-16T01:19:24;9.40;92.60
8882;DHT22;4477;48.736;9.176;2024-02-16T01:21:55;9.30;92.80
8882;DHT22;4477;48.736;9.176;2024-02-16T01:24:26;9.30;93.00
8882;DHT22;4477;48.736;9.176;2024-02-16T01:26:54;9.20;93.10
8882;DHT22;4477;48.736;9.176;2024-02-16T01:29:23;9.30;92.60
8882;DHT22;4477;48.736;9.176;2024-02-16T01:31:51;9.40;92.50
8882;DHT22;4477;48.736;9.176;2024-02-16T01:34:21;9.40;92.50
8882;DHT22;4477;48.736;9.176;2024-02-16T01:36:50;9.40;92.80
8882;DHT22;4477;48.736;9.176;2024-02-16T01:39:19;9.30;92.70
8882;DHT22;4477;48.736;9.176;2024-02-16T01:41:47;9.30;92.50
8882;DHT22;4477;48.736;9.176;2024-02-16T01:44:14;9.30;92.50
8882;DHT22;4477;48.736;9.176;2024-02-16T01:46:43;9.30;92.40
8882;DHT22;4477;48.736;9.176;2024-02-16T01:49:14;9.30;92.20
8882;DHT22;4477;48.736;9.176;2024-02-16T01:51:43;9.40;91.90
8882;DHT22;4477;48.736;9.176;2024-02-16T01:54:11;9.40;92.20
8882;DHT22;4477;48.736;9.176;2024-02-16T01:56:40;9.50;91.80
8882;DHT22;4477;48.736;9.176;2024-02-16T01:59:07;9.50;91.60
8882;DHT22;4477;48.736;9.176;2024-02-16T02:01:35;9.70;91.50
8882;DHT22;4477;48.736;9.176;2024-02-16T02:04:05;9.70;91.40
8882;DHT22;4477;48.736;9.176;2024-02-16T02:06:33;9.70;91.80
8882;DHT22;4477;48.736;9.176;2024-02-16T02:09:02;9.50;92.70
8882;DHT22;4477;48.736;9.176;2024-02-16T02:11:30;9.50;93.50
8882;DHT22;4477;48.736;9.176;2024-02-16T02:13:57;9.30;94.30
8882;DHT22;4477;48.736;9.176;2024-02-16T02:16:25;9.20;95.50
8882;DHT22;4477;48.736;9.176;2024-02-16T02:18:56;9.10;95.60
8882;DHT22;4477;48.736;9.176;2024-02-16T02:21:26;8.90;97.60
8882;DHT22;4477;48.736;9.176;2024-02-16T02:23:56;8.80;98.10
8882;DHT22;4477;48.736;9.176;2024-02-16T02:26:25;8.90;99.90
8882;DHT22;4477;48.736;9.176;2024-02-16T02:28:53;8.80;99.90
8882;DHT22;4477;48.736;9.176;2024-02-16T02:31:21;8.70;99.90
8882;DHT22;4477;48.736;9.176;2024-02-16T02:33:50;8.70;99.90
8882;DHT22;4477;48.736;9.176;2024-02-16T02:36:17;8.50;99.90
8882;DHT22;4477;48.736;9.176;2024-02-16T02:38:44;8.40;99.90
8882;DHT22;4477;48.736;9.176;2024-02-16T02:41:13;8.30;99.90
8882;DHT22;4477;48.736;9.176;2024-02-16T02:43:42;8.50;99.90
8882;DHT22;4477;48.736;9.176;2024-02-16T02:46:13;8.70;99.30
8882;DHT22;4477;48.736;9.176;2024-02-16T02:48:41;8.80;98.90
8882;DHT22;4477;48.736;9.176;2024-02-16T02:51:09;9.00;97.20
8882;DHT22;4477;48.736;9.176;2024-02-16T02:53:35;9.00;96.60
8882;DHT22;4477;48.736;9.176;2024-02-16T02:56:03;9.00;95.70
8882;DHT22;4477;48.736;9.176;2024-02-16T02:58:32;9.10;95.10
8882;DHT22;4477;48.736;9.176;2024-02-16T03:00:59;9.20;94.40
8882;DHT22;4477;48.736;9.176;2024-02-16T03:03:29;9.30;93.90
8882;DHT22;4477;48.736;9.176;2024-02-16T03:05:57;9.20;94.90
8882;DHT22;4477;48.736;9.176;2024-02-16T03:08:24;9.10;95.70
8882;DHT22;4477;48.736;9.176;2024-02-16T03:10:51;9.10;94.70
8882;DHT22;4477;48.736;9.176;2024-02-16T03:13:19;9.00;95.40
8882;DHT22;4477;48.736;9.176;2024-02-16T03:15:49;8.80;96.10
8882;DHT22;4477;48.736;9.176;2024-02-16T03:18:17;8.80;95.90
8882;DHT22;4477;48.736;9.176;2024-02-16T03:20:46;8.70;96.00
8882;DHT22;4477;48.736;9.176;2024-02-16T03:23:14;8.70;96.50
8882;DHT22;4477;48.736;9.176;2024-02-16T03:25:41;8.70;97.60
8882;DHT22;4477;48.736;9.176;2024-02-16T03:28:11;8.70;98.60
8882;DHT22;4477;48.736;9.176;2024-02-16T03:30:40;8.60;98.70
8882;DHT22;4477;48.736;9.176;2024-02-16T03:33:09;8.40;99.30
8882;DHT22;4477;48.736;9.176;2024-02-16T03:35:36;8.30;99.90
8882;DHT22;4477;48.736;9.176;2024-02-16T03:38:03;8.20;99.90
8882;DHT22;4477;48.736;9.176;2024-02-16T03:40:31;8.20;99.90
8882;DHT22;4477;48.736;9.176;2024-02-16T03:42:59;8.00;99.90
8882;DHT22;4477;48.736;9.176;2024-02-16T03:45:27;7.90;99.90
8882;DHT22;4477;48.736;9.176;2024-02-16T03:47:59;7.90;99.90
8882;DHT22;4477;48.736;9.176;2024-02-16T03:50:29;7.90;99.90
8882;DHT22;4477;48.736;9.176;2024-02-16T03:52:58;7.90;99.90
8882;DHT22;4477;48.736;9.176;2024-02-16T03:55:25;8.10;99.90
8882;DHT22;4477;48.736;9.176;2024-02-16T03:57:52;8.00;99.90
8882;DHT22;4477;48.736;9.176;2024-02-16T04:00:19;7.90;99.90
8882;DHT22;4477;48.736;9.176;2024-02-16T04:02:48;7.90;99.90
8882;DHT22;4477;48.736;9.176;2024-02-16T04:05:15;7.80;99.90
8882;DHT22;4477;48.736;9.176;2024-02-16T04:07:46;7.80;99.90
8882;DHT22;4477;48.736;9.176;2024-02-16T04:10:14;7.90;99.90
8882;DHT22;4477;48.736;9.176;2024-02-16T04:12:42;7.90;99.90
8882;DHT22;4477;48.736;9.176;2024-02-16T04:15:11;8.00;99.90
8882;DHT22;4477;48.736;9.176;2024-02-16T04:17:38;8.00;99.90
8882;DHT22;4477;48.736;9.176;2024-02-16T04:20:06;7.90;99.90
8882;DHT22;4477;48.736;9.176;2024-02-16T04:22:34;7.90;99.90
8882;DHT22;4477;48.736;9.176;2024-02-16T04:25:05;7.90;99.90
8882;DHT22;4477;48.736;9.176;2024-02-16T04:27:35;7.80;99.90
8882;DHT22;4477;48.736;9.176;2024-02-16T04:30:03;7.90;99.90
8882;DHT22;4477;48.736;9.176;2024-02-16T04:32:31;7.80;99.90
8882;DHT22;4477;48.736;9.176;2024-02-16T04:34:58;7.80;99.90
8882;DHT22;4477;48.736;9.176;2024-02-16T04:37:25;7.80;99.90
8882;DHT22;4477;48.736;9.176;2024-02-16T04:39:54;7.70;99.90
8882;DHT22;4477;48.736;9.176;2024-02-16T04:42:23;7.60;99.90
8882;DHT22;4477;48.736;9.176;2024-02-16T04:44:51;7.60;99.90
8882;DHT22;4477;48.736;9.176;2024-02-16T04:47:18;7.50;99.90
8882;DHT22;4477;48.736;9.176;2024-02-16T04:49:45;7.70;99.90
8882;DHT22;4477;48.736;9.176;2024-02-16T04:52:12;7.70;99.90
8882;DHT22;4477;48.736;9.176;2024-02-16T04:54:39;7.70;99.90
8882;DHT22;4477;48.736;9.176;2024-02-16T04:57:09;7.60;99.90
8882;DHT22;4477;48.736;9.176;2024-02-16T04:59:37;7.60;99.90
8882;DHT22;4477;48.736;9.176;2024-02-16T05:02:04;7.60;99.90
8882;DHT22;4477;48.736;9.176;2024-02-16T05:04:33;7.60;99.90
8882;DHT22;4477;48.736;9.176;2024-02-16T05:07:00;7.60;99.90
8882;DHT22;4477;48.736;9.176;2024-02-16T05:09:27;7.60;99.90
8882;DHT22;4477;48.736;9.176;2024-02-16T05:11:54;7.70;99.90
8882;DHT22;4477;48.736;9.176;2024-02-16T05:14:23;7.60;99.90
8882;DHT22;4477;48.736;9.176;2024-02-16T05:16:53;7.60;99.90
8882;DHT22;4477;48.736;9.176;2024-02-16T05:19:21;7.60;99.90
8882;DHT22;4477;48.736;9.176;2024-02-16T05:21:48;7.50;99.90
8882;DHT22;4477;48.736;9.176;2024-02-16T05:24:15;7.50;99.90
8882;DHT22;4477;48.736;9.176;2024-02-16T05:26:43;7.40;99.90
8882;DHT22;4477;48.736;9.176;2024-02-16T05:29:12;7.40;99.90
8882;DHT22;4477;48.736;9.176;2024-02-16T05:31:39;7.30;99.90
8882;DHT22;4477;48.736;9.176;2024-02-16T05:34:09;7.30;99.90
8882;DHT22;4477;48.736;9.176;2024-02-16T05:36:36;7.40;99.90
8882;DHT22;4477;48.736;9.176;2024-02-16T05:39:04;7.30;99.90
8882;DHT22;4477;48.736;9.176;2024-02-16T05:41:46;7.20;99.90
8882;DHT22;4477;48.736;9.176;2024-02-16T05:44:13;7.20;99.90
8882;DHT22;4477;48.736;9.176;2024-02-16T05:46:40;7.20;99.90
8882;DHT22;4477;48.736;9.176;2024-02-16T05:49:08;7.20;99.90
8882;DHT22;4477;48.736;9.176;2024-02-16T05:51:38;7.20;99.90
8882;DHT22;4477;48.736;9.176;2024-02-16T05:54:07;7.30;99.90
8882;DHT22;4477;48.736;9.176;2024-02-16T05:56:35;7.30;99.90
8882;DHT22;4477;48.736;9.176;2024-02-16T05:59:04;7.10;99.90
8882;DHT22;4477;48.736;9.176;2024-02-16T06:01:32;7.00;99.90
8882;DHT22;4477;48.736;9.176;2024-02-16T06:03:59;6.90;99.90
8882;DHT22;4477;48.736;9.176;2024-02-16T06:06:28;6.90;99.90
8882;DHT22;4477;48.736;9.176;2024-02-16T06:08:54;6.80;99.90
8882;DHT22;4477;48.736;9.176;2024-02-16T06:11:22;6.80;99.90
8882;DHT22;4477;48.736;9.176;2024-02-16T06:13:49;6.80;99.90
8882;DHT22;4477;48.736;9.176;2024-02-16T06:16:19;6.90;99.90
8882;DHT22;4477;48.736;9.176;2024-02-16T06:18:46;6.80;99.90
8882;DHT22;4477;48.736;9.176;2024-02-16T06:21:16;6.80;99.90
8882;DHT22;4477;48.736;9.176;2024-02-16T06:23:46;6.70;99.90
8882;DHT22;4477;48.736;9.176;2024-02-16T06:26:15;6.70;99.90
8882;DHT22;4477;48.736;9.176;2024-02-16T06:28:43;6.70;99.90
8882;DHT22;4477;48.736;9.176;2024-02-16T06:31:12;6.70;99.90
8882;DHT22;4477;48.736;9.176;2024-02-16T06:33:40;6.70;99.90
8882;DHT22;4477;48.736;9.176;2024-02-16T06:36:08;6.60;99.90
8882;DHT22;4477;48.736;9.176;2024-02-16T06:38:35;6.70;99.90
8882;DHT22;4477;48.736;9.176;2024-02-16T06:41:05;6.70;99.90
8882;DHT22;4477;48.736;9.176;2024-02-16T06:43:32;6.70;99.90
8882;DHT22;4477;48.736;9.176;2024-02-16T06:45:59;6.80;99.90
8882;DHT22;4477;48.736;9.176;2024-02-16T06:48:26;6.70;99.90
8882;DHT22;4477;48.736;9.176;2024-02-16T06:50:53;6.70;99.90
8882;DHT22;4477;48.736;9.176;2024-02-16T06:53:20;6.70;99.90
8882;DHT22;4477;48.736;9.176;2024-02-16T06:55:47;6.60;99.90
8882;DHT22;4477;48.736;9.176;2024-02-16T06:58:18;6.70;99.90
8882;DHT22;4477;48.736;9.176;2024-02-16T07:00:46;6.70;99.90
8882;DHT22;4477;48.736;9.176;2024-02-16T07:03:14;6.70;99.90
8882;DHT22;4477;48.736;9.176;2024-02-16T07:05:41;6.60;99.90
8882;DHT22;4477;48.736;9.176;2024-02-16T07:08:10;6.60;99.90
8882;DHT22;4477;48.736;9.176;2024-02-16T07:10:39;6.60;99.90
8882;DHT22;4477;48.736;9.176;2024-02-16T07:13:06;6.60;99.90
8882;DHT22;4477;48.736;9.176;2024-02-16T07:15:34;6.70;99.90
8882;DHT22;4477;48.736;9.176;2024-02-16T07:18:01;6.70;99.90
8882;DHT22;4477;48.736;9.176;2024-02-16T07:20:30;6.90;99.90
8882;DHT22;4477;48.736;9.176;2024-02-16T07:22:57;6.90;99.90
8882;DHT22;4477;48.736;9.176;2024-02-16T07:25:24;7.10;99.90
8882;DHT22;4477;48.736;9.176;2024-02-16T07:27:53;7.20;99.90
8882;DHT22;4477;48.736;9.176;2024-02-16T07:30:20;7.40;99.90
8882;DHT22;4477;48.736;9.176;2024-02-16T07:32:50;7.60;99.90
8882;DHT22;4477;48.736;9.176;2024-02-16T07:35:18;7.70;99.90
8882;DHT22;4477;48.736;9.176;2024-02-16T07:37:46;7.90;99.90
8882;DHT22;4477;48.736;9.176;2024-02-16T07:40:15;8.10;99.90
8882;DHT22;4477;48.736;9.176;2024-02-16T07:42:42;8.10;99.90
8882;DHT22;4477;48.736;9.176;2024-02-16T07:45:10;8.20;99.90
8882;DHT22;4477;48.736;9.176;2024-02-16T07:47:38;8.20;99.90
8882;DHT22;4477;48.736;9.176;2024-02-16T07:50:07;8.20;99.90
8882;DHT22;4477;48.736;9.176;2024-02-16T07:52:36;8.20;99.90
8882;DHT22;4477;48.736;9.176;2024-02-16T07:55:04;8.20;99.90
8882;DHT22;4477;48.736;9.176;2024-02-16T07:57:32;8.20;99.90
8882;DHT22;4477;48.736;9.176;2024-02-16T07:59:59;8.30;99.90
8882;DHT22;4477;48.736;9.176;2024-02-16T08:02:27;8.40;99.90
8882;DHT22;4477;48.736;9.176;2024-02-16T08:04:54;8.50;99.90
8882;DHT22;4477;48.736;9.176;2024-02-16T08:07:25;8.70;99.90
8882;DHT22;4477;48.736;9.176;2024-02-16T08:09:56;9.00;99.90
8882;DHT22;4477;48.736;9.176;2024-02-16T08:12:26;9.50;99.90
8882;DHT22;4477;48.736;9.176;2024-02-16T08:14:54;10.80;99.10
8882;DHT22;4477;48.736;9.176;2024-02-16T08:17:22;12.20;94.20
8882;DHT22;4477;48.736;9.176;2024-02-16T08:19:52;13.70;89.30
8882;DHT22;4477;48.736;9.176;2024-02-16T08:22:23;15.30;80.30
8882;DHT22;4477;48.736;9.176;2024-02-16T08:24:53;17.00;72.30
8882;DHT22;4477;48.736;9.176;2024-02-16T08:27:23;18.40;65.60
8882;DHT22;4477;48.736;9.176;2024-02-16T08:29:51;19.20;61.40
8882;DHT22;4477;48.736;9.176;2024-02-16T08:32:27;20.40;57.80
8882;DHT22;4477;48.736;9.176;2024-02-16T08:34:56;21.60;55.00
8882;DHT22;4477;48.736;9.176;2024-02-16T08:37:54;22.10;51.40
8882;DHT22;4477;48.736;9.176;2024-02-16T08:40:26;22.50;49.80
8882;DHT22;4477;48.736;9.176;2024-02-16T08:43:05;22.00;48.90
8882;DHT22;4477;48.736;9.176;2024-02-16T08:45:37;21.40;49.50
8882;DHT22;4477;48.736;9.176;2024-02-16T08:48:07;20.80;51.50
8882;DHT22;4477;48.736;9.176;2024-02-16T08:50:36;20.60;52.40
8882;DHT22;4477;48.736;9.176;2024-02-16T08:53:07;20.50;53.40
8882;DHT22;4477;48.736;9.176;2024-02-16T08:55:37;19.90;51.90
8882;DHT22;4477;48.736;9.176;2024-02-16T08:58:11;18.60;55.10
8882;DHT22;4477;48.736;9.176;2024-02-16T09:00:42;18.90;55.60
8882;DHT22;4477;48.736;9.176;2024-02-16T09:03:24;19.50;54.30
8882;DHT22;4477;48.736;9.176;2024-02-16T09:05:56;20.00;52.80
8882;DHT22;4477;48.736;9.176;2024-02-16T09:08:51;20.10;53.50
8882;DHT22;4477;48.736;9.176;2024-02-16T09:11:22;20.90;52.00
8882;DHT22;4477;48.736;9.176;2024-02-16T09:13:51;22.10;50.30
8882;DHT22;4477;48.736;9.176;2024-02-16T09:16:22;22.20;49.50
8882;DHT22;4477;48.736;9.176;2024-02-16T09:18:58;23.10;47.50
8882;DHT22;4477;48.736;9.176;2024-02-16T09:21:26;23.60;46.30
8882;DHT22;4477;48.736;9.176;2024-02-16T09:23:59;22.50;47.20
8882;DHT22;4477;48.736;9.176;2024-02-16T09:26:27;21.10;49.30
8882;DHT22;4477;48.736;9.176;2024-02-16T09:28:56;19.30;52.00
8882;DHT22;4477;48.736;9.176;2024-02-16T09:31:25;17.80;55.30
8882;DHT22;4477;48.736;9.176;2024-02-16T09:33:52;17.30;57.00
8882;DHT22;4477;48.736;9.176;2024-02-16T09:36:22;17.00;58.30
8882;DHT22;4477;48.736;9.176;2024-02-16T09:38:49;16.90;58.00
8882;DHT22;4477;48.736;9.176;2024-02-16T09:41:20;16.90;59.20
8882;DHT22;4477;48.736;9.176;2024-02-16T09:43:48;17.50;58.20
8882;DHT22;4477;48.736;9.176;2024-02-16T09:46:23;18.60;56.60
8882;DHT22;4477;48.736;9.176;2024-02-16T09:48:51;19.60;54.90
8882;DHT22;4477;48.736;9.176;2024-02-16T09:51:20;20.50;52.30
8882;DHT22;4477;48.736;9.176;2024-02-16T09:53:50;22.10;50.50
8882;DHT22;4477;48.736;9.176;2024-02-16T09:56:23;22.80;49.50
8882;DHT22;4477;48.736;9.176;2024-02-16T09:58:51;22.50;47.20
8882;DHT22;4477;48.736;9.176;2024-02-16T10:01:19;22.10;50.30
8882;DHT22;4477;48.736;9.176;2024-02-16T10:03:47;22.10;49.00
8882;DHT22;4477;48.736;9.176;2024-02-16T10:06:16;22.60;49.40
8882;DHT22;4477;48.736;9.176;2024-02-16T10:08:50;22.80;48.00
8882;DHT22;4477;48.736;9.176;2024-02-16T10:11:18;22.40;48.70
8882;DHT22;4477;48.736;9.176;2024-02-16T10:13:57;21.40;50.90
8882;DHT22;4477;48.736;9.176;2024-02-16T10:16:25;20.50;51.90
8882;DHT22;4477;48.736;9.176;2024-02-16T10:18:55;19.60;53.10
8882;DHT22;4477;48.736;9.176;2024-02-16T10:21:27;19.20;55.60
8882;DHT22;4477;48.736;9.176;2024-02-16T10:24:00;18.50;56.10
8882;DHT22;4477;48.736;9.176;2024-02-16T10:26:30;18.10;56.90
8882;DHT22;4477;48.736;9.176;2024-02-16T10:28:59;17.90;56.00
8882;DHT22;4477;48.736;9.176;2024-02-16T10:31:29;17.70;58.50
8882;DHT22;4477;48.736;9.176;2024-02-16T10:33:58;17.40;58.80
8882;DHT22;4477;48.736;9.176;2024-02-16T10:36:27;17.00;58.80
8882;DHT22;4477;48.736;9.176;2024-02-16T10:38:55;16.80;61.30
8882;DHT22;4477;48.736;9.176;2024-02-16T10:41:26;17.00;60.30
8882;DHT22;4477;48.736;9.176;2024-02-16T10:43:55;17.10;60.50
8882;DHT22;4477;48.736;9.176;2024-02-16T10:46:23;16.90;59.30
8882;DHT22;4477;48.736;9.176;2024-02-16T10:48:51;16.80;60.90
8882;DHT22;4477;48.736;9.176;2024-02-16T10:51:23;16.60;62.10
8882;DHT22;4477;48.736;9.176;2024-02-16T10:53:52;16.50;60.50
8882;DHT22;4477;48.736;9.176;2024-02-16T10:56:27;16.40;61.80
8882;DHT22;4477;48.736;9.176;2024-02-16T10:58:55;16.30;63.50
8882;DHT22;4477;48.736;9.176;2024-02-16T11:01:24;16.20;64.60
8882;DHT22;4477;48.736;9.176;2024-02-16T11:04:00;16.10;63.10
8882;DHT22;4477;48.736;9.176;2024-02-16T11:06:29;16.20;63.20
8882;DHT22;4477;48.736;9.176;2024-02-16T11:09:02;16.20;63.20
8882;DHT22;4477;48.736;9.176;2024-02-16T11:11:36;16.10;63.10
8882;DHT22;4477;48.736;9.176;2024-02-16T11:14:14;16.10;63.20
8882;DHT22;4477;48.736;9.176;2024-02-16T11:16:47;16.20;64.30
8882;DHT22;4477;48.736;9.176;2024-02-16T11:19:14;16.20;65.30
8882;DHT22;4477;48.736;9.176;2024-02-16T11:21:56;16.10;64.60
8882;DHT22;4477;48.736;9.176;2024-02-16T11:24:30;16.10;64.70
8882;DHT22;4477;48.736;9.176;2024-02-16T11:26:58;16.40;63.60
8882;DHT22;4477;48.736;9.176;2024-02-16T11:29:31;16.70;63.30
8882;DHT22;4477;48.736;9.176;2024-02-16T11:32:00;16.70;63.60
8882;DHT22;4477;48.736;9.176;2024-02-16T11:34:28;16.70;61.10
8882;DHT22;4477;48.736;9.176;2024-02-16T11:36:55;16.80;61.10
8882;DHT22;4477;48.736;9.176;2024-02-16T11:39:24;17.10;62.40
8882;DHT22;4477;48.736;9.176;2024-02-16T11:42:00;17.40;62.80
8882;DHT22;4477;48.736;9.176;2024-02-16T11:44:29;17.60;61.50
8882;DHT22;4477;48.736;9.176;2024-02-16T11:46:58;17.80;59.00
8882;DHT22;4477;48.736;9.176;2024-02-16T11:49:27;18.30;58.70
8882;DHT22;4477;48.736;9.176;2024-02-16T11:51:54;19.20;56.60
8882;DHT22;4477;48.736;9.176;2024-02-16T11:54:22;19.90;55.30
8882;DHT22;4477;48.736;9.176;2024-02-16T11:56:50;20.70;54.70
8882;DHT22;4477;48.736;9.176;2024-02-16T11:59:18;21.00;52.70
8882;DHT22;4477;48.736;9.176;2024-02-16T12:01:54;22.10;52.30
8882;DHT22;4477;48.736;9.176;2024-02-16T12:04:25;22.90;49.40
8882;DHT22;4477;48.736;9.176;2024-02-16T12:06:55;23.20;48.40
8882;DHT22;4477;48.736;9.176;2024-02-16T12:09:25;23.20;47.70
8882;DHT22;4477;48.736;9.176;2024-02-16T12:11:53;23.70;47.10
8882;DHT22;4477;48.736;9.176;2024-02-16T12:14:23;23.70;46.50
8882;DHT22;4477;48.736;9.176;2024-02-16T12:16:52;22.90;48.50
8882;DHT22;4477;48.736;9.176;2024-02-16T12:19:19;22.10;49.10
8882;DHT22;4477;48.736;9.176;2024-02-16T12:21:50;22.00;49.90
8882;DHT22;4477;48.736;9.176;2024-02-16T12:24:18;22.00;51.10
8882;DHT22;4477;48.736;9.176;2024-02-16T12:26:45;22.30;50.60
8882;DHT22;4477;48.736;9.176;2024-02-16T12:29:13;22.20;49.00
8882;DHT22;4477;48.736;9.176;2024-02-16T12:31:40;21.40;51.10
8882;DHT22;4477;48.736;9.176;2024-02-16T12:34:08;21.10;52.00
8882;DHT22;4477;48.736;9.176;2024-02-16T12:36:36;21.60;51.00
8882;DHT22;4477;48.736;9.176;2024-02-16T12:39:04;20.90;53.00
8882;DHT22;4477;48.736;9.176;2024-02-16T12:41:32;20.70;51.90
8882;DHT22;4477;48.736;9.176;2024-02-16T12:44:01;20.50;53.20
8882;DHT22;4477;48.736;9.176;2024-02-16T12:46:28;19.70;54.70
8882;DHT22;4477;48.736;9.176;2024-02-16T12:48:55;19.20;55.50
8882;DHT22;4477;48.736;9.176;2024-02-16T12:51:23;19.20;56.90
8882;DHT22;4477;48.736;9.176;2024-02-16T12:53:50;19.10;57.80
8882;DHT22;4477;48.736;9.176;2024-02-16T12:56:19;19.10;57.80
8882;DHT22;4477;48.736;9.176;2024-02-16T12:58:49;18.90;59.20
8882;DHT22;4477;48.736;9.176;2024-02-16T13:01:16;18.70;60.00
8882;DHT22;4477;48.736;9.176;2024-02-16T13:03:44;18.70;59.00
8882;DHT22;4477;48.736;9.176;2024-02-16T13:06:11;18.60;58.50
8882;DHT22;4477;48.736;9.176;2024-02-16T13:08:38;18.50;59.00
8882;DHT22;4477;48.736;9.176;2024-02-16T13:11:05;18.60;58.60
8882;DHT22;4477;48.736;9.176;2024-02-16T13:13:35;18.40;58.70
8882;DHT22;4477;48.736;9.176;2024-02-16T13:16:05;18.40;60.90
8882;DHT22;4477;48.736;9.176;2024-02-16T13:18:33;18.30;61.10
8882;DHT22;4477;48.736;9.176;2024-02-16T13:21:00;17.90;59.90
8882;DHT22;4477;48.736;9.176;2024-02-16T13:23:28;17.60;63.00
8882;DHT22;4477;48.736;9.176;2024-02-16T13:25:56;17.60;63.60
8882;DHT22;4477;48.736;9.176;2024-02-16T13:28:24;17.30;63.60
8882;DHT22;4477;48.736;9.176;2024-02-16T13:30:54;17.40;65.00
8882;DHT22;4477;48.736;9.176;2024-02-16T13:33:22;17.20;65.80
8882;DHT22;4477;48.736;9.176;2024-02-16T13:35:49;17.10;65.20
8882;DHT22;4477;48.736;9.176;2024-02-16T13:38:17;17.10;65.00
8882;DHT22;4477;48.736;9.176;2024-02-16T13:40:44;17.10;67.50
8882;DHT22;4477;48.736;9.176;2024-02-16T13:43:11;17.20;66.50
8882;DHT22;4477;48.736;9.176;2024-02-16T13:45:49;17.00;66.10
8882;DHT22;4477;48.736;9.176;2024-02-16T13:48:19;17.00;67.70
8882;DHT22;4477;48.736;9.176;2024-02-16T13:50:47;16.90;67.40
8882;DHT22;4477;48.736;9.176;2024-02-16T13:53:17;16.80;67.40
8882;DHT22;4477;48.736;9.176;2024-02-16T13:55:46;16.80;67.60
8882;DHT22;4477;48.736;9.176;2024-02-16T13:58:13;17.00;67.10
8882;DHT22;4477;48.736;9.176;2024-02-16T14:00:40;16.90;65.90
8882;DHT22;4477;48.736;9.176;2024-02-16T14:03:09;17.10;66.10
8882;DHT22;4477;48.736;9.176;2024-02-16T14:05:39;17.10;65.50
8882;DHT22;4477;48.736;9.176;2024-02-16T14:08:07;17.00;65.30
8882;DHT22;4477;48.736;9.176;2024-02-16T14:10:37;16.70;65.50
8882;DHT22;4477;48.736;9.176;2024-02-16T14:13:04;16.60;67.30
8882;DHT22;4477;48.736;9.176;2024-02-16T14:15:31;16.50;68.90
8882;DHT22;4477;48.736;9.176;2024-02-16T14:17:59;16.40;68.30
8882;DHT22;4477;48.736;9.176;2024-02-16T14:20:26;16.50;67.80
8882;DHT22;4477;48.736;9.176;2024-02-16T14:22:56;16.30;68.20
8882;DHT22;4477;48.736;9.176;2024-02-16T14:25:25;16.30;68.30
8882;DHT22;4477;48.736;9.176;2024-02-16T14:27:52;16.20;68.50
8882;DHT22;4477;48.736;9.176;2024-02-16T14:30:20;16.20;69.20
8882;DHT22;4477;48.736;9.176;2024-02-16T14:32:48;16.10;69.10
8882;DHT22;4477;48.736;9.176;2024-02-16T14:35:16;16.00;69.60
8882;DHT22;4477;48.736;9.176;2024-02-16T14:37:44;16.20;69.90
8882;DHT22;4477;48.736;9.176;2024-02-16T14:40:15;16.30;70.70
8882;DHT22;4477;48.736;9.176;2024-02-16T14:42:43;16.20;70.70
8882;DHT22;4477;48.736;9.176;2024-02-16T14:45:11;16.20;70.50
8882;DHT22;4477;48.736;9.176;2024-02-16T14:47:45;16.20;70.70
8882;DHT22;4477;48.736;9.176;2024-02-16T14:50:12;16.00;70.90
8882;DHT22;4477;48.736;9.176;2024-02-16T14:52:41;15.90;72.10
8882;DHT22;4477;48.736;9.176;2024-02-16T14:55:10;15.90;73.10
8882;DHT22;4477;48.736;9.176;2024-02-16T14:57:42;15.60;74.40
8882;DHT22;4477;48.736;9.176;2024-02-16T15:00:11;15.40;74.80
8882;DHT22;4477;48.736;9.176;2024-02-16T15:02:40;15.20;76.30
8882;DHT22;4477;48.736;9.176;2024-02-16T15:05:08;15.10;76.80
8882;DHT22;4477;48.736;9.176;2024-02-16T15:07:36;15.00;77.80
8882;DHT22;4477;48.736;9.176;2024-02-16T15:10:04;14.90;78.80
8882;DHT22;4477;48.736;9.176;2024-02-16T15:12:31;14.90;79.50
8882;DHT22;4477;48.736;9.176;2024-02-16T15:15:00;15.00;79.10
8882;DHT22;4477;48.736;9.176;2024-02-16T15:17:28;15.00;78.40
8882;DHT22;4477;48.736;9.176;2024-02-16T15:19:55;15.10;78.60
8882;DHT22;4477;48.736;9.176;2024-02-16T15:22:22;15.00;77.60
8882;DHT22;4477;48.736;9.176;2024-02-16T15:24:51;15.10;78.30
8882;DHT22;4477;48.736;9.176;2024-02-16T15:27:20;15.10;78.70
8882;DHT22;4477;48.736;9.176;2024-02-16T15:29:47;15.10;78.00
8882;DHT22;4477;48.736;9.176;2024-02-16T15:32:17;15.20;79.50
8882;DHT22;4477;48.736;9.176;2024-02-16T15:34:45;15.10;78.80
8882;DHT22;4477;48.736;9.176;2024-02-16T15:37:19;15.10;79.10
8882;DHT22;4477;48.736;9.176;2024-02-16T15:39:46;15.10;79.30
8882;DHT22;4477;48.736;9.176;2024-02-16T15:42:13;15.00;79.80
8882;DHT22;4477;48.736;9.176;2024-02-16T15:44:42;15.00;80.10
8882;DHT22;4477;48.736;9.176;2024-02-16T15:47:09;14.90;81.30
8882;DHT22;4477;48.736;9.176;2024-02-16T15:49:38;14.80;82.10
8882;DHT22;4477;48.736;9.176;2024-02-16T15:52:07;14.70;81.60
8882;DHT22;4477;48.736;9.176;2024-02-16T15:54:34;14.60;82.30
8882;DHT22;4477;48.736;9.176;2024-02-16T15:57:01;14.50;83.00
8882;DHT22;4477;48.736;9.176;2024-02-16T15:59:29;14.50;84.00
8882;DHT22;4477;48.736;9.176;2024-02-16T16:01:57;14.30;84.20
8882;DHT22;4477;48.736;9.176;2024-02-16T16:04:24;14.20;84.90
8882;DHT22;4477;48.736;9.176;2024-02-16T16:06:55;14.20;84.40
8882;DHT22;4477;48.736;9.176;2024-02-16T16:09:23;14.10;85.10
8882;DHT22;4477;48.736;9.176;2024-02-16T16:11:50;14.10;85.00
8882;DHT22;4477;48.736;9.176;2024-02-16T16:14:21;14.10;85.40
8882;DHT22;4477;48.736;9.176;2024-02-16T16:16:48;14.00;85.90
8882;DHT22;4477;48.736;9.176;2024-02-16T16:19:20;13.90;86.70